EW5603 Shelton CT US current weather conditions

sailwx.info

Dewpoint 18.3° C

Last reported at 2020-Jul-14 07:09 UTC.
Time now 2020-Jul-14 07:55 UTC

Location: N 41°18' W 073°05'.
View on Google Maps.

See reports from other nearby stations

  
Tides and Currents Weather Stations Pressure Air Temp Water Temp Dewpoint Dewpoint Depression Visibility Wind Speed Wind Dir Waves Ship Positions
date/time (UTC)wind fromknots sea level pressurealtimeterstation pressurevisibilityair tempwater tempwave heightnotes
2020-Jul-14 07:09
2020-Jul-14 07:04
2020-Jul-14 06:59
2020-Jul-14 06:54
2020-Jul-14 06:49
2020-Jul-14 06:44
2020-Jul-14 06:39
2020-Jul-14 06:34
2020-Jul-14 06:29
2020-Jul-14 06:24
2020-Jul-14 06:19
2020-Jul-14 06:14
2020-Jul-14 06:09
2020-Jul-14 06:04
2020-Jul-14 05:59
2020-Jul-14 05:54
2020-Jul-14 05:49
2020-Jul-14 05:44
2020-Jul-14 05:39
2020-Jul-14 05:34
2020-Jul-14 05:29
2020-Jul-14 05:24
2020-Jul-14 05:19
2020-Jul-14 05:14 023 0 21.1
2020-Jul-14 05:09 315 0 21.1
2020-Jul-14 05:04 315 1 21.1
2020-Jul-14 04:59 338 2 21.1
2020-Jul-14 04:54 293 2 21.7
2020-Jul-14 04:49 293 1 21.7
2020-Jul-14 04:44 21.7
2020-Jul-14 04:39 293 1 21.7
2020-Jul-14 04:34 270 1 21.7
2020-Jul-14 04:29 293 2 21.7
2020-Jul-14 04:24 293 2 21.7
2020-Jul-14 04:19 338 1 21.7
2020-Jul-14 04:14 293 2 gusting 3 21.7
2020-Jul-14 04:09 270 1 gusting 2 22.2
2020-Jul-14 04:04 270 2 gusting 5 22.2
2020-Jul-14 03:59 293 2 gusting 5 22.2
2020-Jul-14 03:54 315 1 gusting 2 22.2
2020-Jul-14 03:49 270 2 gusting 3 22.2
2020-Jul-14 03:44 293 2 gusting 5 22.2
2020-Jul-14 03:39 315 2 gusting 3 22.2
2020-Jul-14 03:34 338 3 gusting 5 22.8
2020-Jul-14 03:29 270 3 gusting 6 22.8
2020-Jul-14 03:24 23.3
2020-Jul-14 03:19 293 1 gusting 2 23.3
2020-Jul-14 03:14 293 3 gusting 6 23.9
2020-Jul-14 03:09 315 3 gusting 6 23.9
2020-Jul-14 03:04 293 2 gusting 4 23.9
2020-Jul-14 02:59 293 3 gusting 6 23.9
2020-Jul-14 02:54 270 5 gusting 10 23.9
2020-Jul-14 02:49 293 2 gusting 3 23.9
2020-Jul-14 02:44 293 3 gusting 6 23.9
2020-Jul-14 02:39 248 2 gusting 4 23.9
2020-Jul-14 02:34 270 2 gusting 3 24.4
2020-Jul-14 02:29 270 3 gusting 5 24.4
2020-Jul-14 02:24 270 1 gusting 2 24.4
2020-Jul-14 02:19 293 0 gusting 1 24.4
2020-Jul-14 02:14 270 1 gusting 3 24.4
2020-Jul-14 02:09 293 1 gusting 2 23.9
2020-Jul-14 02:04 270 1 gusting 3 23.9
2020-Jul-14 01:59 270 0 gusting 1 23.9
2020-Jul-14 01:54 23.9
2020-Jul-14 01:49 24.4
2020-Jul-14 01:44 24.4
2020-Jul-14 01:39 24.4
2020-Jul-14 01:34 24.4
2020-Jul-14 01:29 25.0
2020-Jul-14 01:24 25.0
2020-Jul-14 01:19 270 0 gusting 0 25.0
2020-Jul-14 01:14 270 0 gusting 1 25.0
2020-Jul-14 01:09 293 0 gusting 1 25.0
2020-Jul-14 01:04 293 0 gusting 2 25.0
2020-Jul-14 00:59 315 0 gusting 1 25.0
2020-Jul-14 00:54 293 1 gusting 2 25.0
2020-Jul-14 00:49 293 2 gusting 5 25.0
2020-Jul-14 00:44 293 0 gusting 1 25.6
2020-Jul-14 00:39 315 0 gusting 1 25.6
2020-Jul-14 00:34 293 1 gusting 2 25.6
2020-Jul-14 00:29 293 1 gusting 2 26.1
2020-Jul-14 00:24 293 1 gusting 2 26.1
2020-Jul-14 00:19 293 1 gusting 2 26.1
2020-Jul-14 00:14 293 0 gusting 1 26.1
2020-Jul-14 00:09 270 1 gusting 2 26.7
2020-Jul-14 00:04 270 1 gusting 2 26.7
2020-Jul-13 23:59 270 4 gusting 6 26.7
2020-Jul-13 23:54 270 2 gusting 3 27.2
2020-Jul-13 23:42 293 2 gusting 5 27.8
2020-Jul-13 23:39 293 2 gusting 3 27.8
2020-Jul-13 23:34 270 1 gusting 2 27.8
2020-Jul-13 23:29 270 3 gusting 5 28.3
2020-Jul-13 23:24 315 2 gusting 5 28.3
2020-Jul-13 23:19 293 2 gusting 6 28.3
2020-Jul-13 23:14 293 4 gusting 6 28.9
2020-Jul-13 23:09 293 1 gusting 2 28.9
2020-Jul-13 23:04 270 1 gusting 3 28.9
2020-Jul-13 22:59 293 2 gusting 4 28.9
2020-Jul-13 22:54 270 3 gusting 6 28.9
2020-Jul-13 22:49 293 4 gusting 6 28.9
2020-Jul-13 22:44 315 1 gusting 3 28.9
2020-Jul-13 22:39 293 2 gusting 5 29.4
2020-Jul-13 22:34 293 3 gusting 6 29.4
2020-Jul-13 22:29 293 3 gusting 6 29.4
2020-Jul-13 22:24 270 1 gusting 3 30.0
2020-Jul-13 22:19 293 4 gusting 6 30.0
2020-Jul-13 22:14 270 2 gusting 6 30.0
2020-Jul-13 22:09 248 0 gusting 1 30.0
2020-Jul-13 22:04 293 5 gusting 7 30.0
2020-Jul-13 21:58 270 3 gusting 6 30.0
2020-Jul-13 21:52 158 0 gusting 1 30.0
2020-Jul-13 21:49 293 0 gusting 2 30.0
2020-Jul-13 21:44 293 5 gusting 6 30.0
2020-Jul-13 21:39 293 6 gusting 9 30.0
2020-Jul-13 21:34 293 4 gusting 6 30.0
2020-Jul-13 21:29 270 2 gusting 3 30.0
2020-Jul-13 21:24 315 2 gusting 5 30.0
2020-Jul-13 21:19 293 4 gusting 8 30.0
2020-Jul-13 21:14 248 4 gusting 8 30.0
2020-Jul-13 21:09 293 2 gusting 4 30.0
2020-Jul-13 21:04 023 1 gusting 2 30.0
2020-Jul-13 20:59 270 4 gusting 7 30.0
2020-Jul-13 20:54 293 4 gusting 7 30.6
2020-Jul-13 20:49 315 2 gusting 5 30.6
2020-Jul-13 20:44 270 4 gusting 7 30.6
2020-Jul-13 20:39 248 3 gusting 10 30.6
2020-Jul-13 20:34 338 0 gusting 2 30.6
2020-Jul-13 20:29 113 0 gusting 1 30.6
2020-Jul-13 20:24 293 6 gusting 6 30.6
2020-Jul-13 20:19 315 0 gusting 1 30.0
2020-Jul-13 20:14 270 1 gusting 2 30.0
2020-Jul-13 20:09 293 0 gusting 1 29.4
2020-Jul-13 20:04 023 0 gusting 3 28.9
2020-Jul-13 19:59 28.9
2020-Jul-13 19:54 045 0 gusting 1 28.3
2020-Jul-13 19:49 28.3
2020-Jul-13 19:44 27.8
2020-Jul-13 19:39 27.8
2020-Jul-13 19:34 27.2
2020-Jul-13 19:29 27.2
2020-Jul-13 19:24 27.2
2020-Jul-13 19:19 27.2
2020-Jul-13 19:14 27.8
2020-Jul-13 19:09 023 0 gusting 0 27.8
2020-Jul-13 19:04 27.2
2020-Jul-13 18:59 27.8
2020-Jul-13 18:54 27.8
2020-Jul-13 18:49 315 0 gusting 1 27.8
2020-Jul-13 18:44 315 0 gusting 1 27.8
2020-Jul-13 18:39 338 0 gusting 1 28.3
2020-Jul-13 18:34 090 0 gusting 1 27.8
2020-Jul-13 18:29 27.8
2020-Jul-13 18:24 158 0 gusting 1 28.3
2020-Jul-13 18:19 023 0 gusting 1 28.3
2020-Jul-13 18:14 203 0 gusting 1 28.3
2020-Jul-13 18:09 180 0 gusting 1 28.3
2020-Jul-13 18:04 180 0 gusting 0 28.3
2020-Jul-13 17:59 180 0 gusting 1 28.3
2020-Jul-13 17:54 180 1 gusting 3 28.3
2020-Jul-13 17:49 180 0 gusting 1 28.3
2020-Jul-13 17:44 180 1 gusting 2 28.3
2020-Jul-13 17:39 180 0 gusting 2 28.3
2020-Jul-13 17:34 203 0 gusting 1 28.3
2020-Jul-13 17:29 180 0 gusting 1 28.3
2020-Jul-13 17:24 180 0 gusting 1 27.8
2020-Jul-13 17:19 180 1 gusting 1 27.8
2020-Jul-13 17:14 180 0 gusting 1 27.8
2020-Jul-13 17:09 338 0 gusting 2 27.8
2020-Jul-13 17:04 180 0 gusting 2 27.8
2020-Jul-13 16:59 27.8
2020-Jul-13 16:54 180 0 gusting 2 27.2
2020-Jul-13 16:49 180 0 gusting 1 27.2
2020-Jul-13 16:44 180 0 gusting 1 27.2
2020-Jul-13 16:39 180 0 gusting 0 27.2
2020-Jul-13 16:34 180 1 gusting 2 27.2
2020-Jul-13 16:29 158 0 gusting 1 27.8
2020-Jul-13 16:24 135 1 gusting 2 27.8
2020-Jul-13 16:19 158 1 gusting 3 27.8
2020-Jul-13 16:14 158 0 gusting 1 28.3
2020-Jul-13 16:09 158 0 gusting 1 28.3
2020-Jul-13 16:04 068 0 gusting 0 28.3
2020-Jul-13 15:59 28.3
2020-Jul-13 15:54 28.3
2020-Jul-13 15:49 068 0 gusting 1 28.3
2020-Jul-13 15:44 315 1 gusting 3 28.3
2020-Jul-13 15:39 338 3 gusting 4 28.3
2020-Jul-13 15:34 248 0 gusting 2 28.3
2020-Jul-13 15:29 315 0 gusting 1 28.3
2020-Jul-13 15:24 28.3
2020-Jul-13 15:19 28.3
2020-Jul-13 15:14 338 1 gusting 2 28.3
2020-Jul-13 15:09 28.3
2020-Jul-13 15:04 248 0 gusting 1 28.3
2020-Jul-13 14:59 28.3
2020-Jul-13 14:54 315 0 gusting 2 28.3
2020-Jul-13 14:49 27.8
2020-Jul-13 14:44 270 0 gusting 1 27.2
2020-Jul-13 14:39 315 1 gusting 3 27.2
2020-Jul-13 14:34 293 1 gusting 3 27.2
2020-Jul-13 14:29 045 0 gusting 1 27.2
2020-Jul-13 14:24 293 2 gusting 3 27.2
2020-Jul-13 14:19 293 0 gusting 1 27.2
2020-Jul-13 14:14 045 0 gusting 1 27.2
2020-Jul-13 14:09 315 0 gusting 2 27.2
2020-Jul-13 14:04 315 1 gusting 1 27.2
2020-Jul-13 13:59 26.7
2020-Jul-13 13:54 26.7
2020-Jul-13 13:49 293 0 gusting 2 26.1
2020-Jul-13 13:44 293 2 gusting 3 26.1
2020-Jul-13 13:39 293 2 gusting 3 26.7
2020-Jul-13 13:34 26.1
2020-Jul-13 13:29 338 1 gusting 3 26.1
2020-Jul-13 13:24 293 1 gusting 2 26.1
2020-Jul-13 13:19 023 0 gusting 1 26.1
2020-Jul-13 13:14 26.1
2020-Jul-13 13:09 293 1 gusting 2 26.1
2020-Jul-13 13:04 26.1
2020-Jul-13 12:59 26.1
2020-Jul-13 12:54 338 0 gusting 1 26.1
2020-Jul-13 12:49 068 0 gusting 0 26.1
2020-Jul-13 12:44 26.1
2020-Jul-13 12:39 25.6
2020-Jul-13 12:34 25.6
2020-Jul-13 12:29 090 1 gusting 1 25.6
2020-Jul-13 12:24 045 0 gusting 0 25.6
2020-Jul-13 12:19 25.0
2020-Jul-13 12:14 25.0
2020-Jul-13 12:09 24.4
2020-Jul-13 12:04 24.4
2020-Jul-13 11:59 23.9
2020-Jul-13 11:54 23.9
2020-Jul-13 11:49 315 0 gusting 1 23.3
2020-Jul-13 11:44 22.8
2020-Jul-13 11:39 315 1 gusting 2 22.8
2020-Jul-13 11:34 293 0 gusting 0 22.2
2020-Jul-13 11:29 22.2
2020-Jul-13 11:24 21.7
2020-Jul-13 11:19 21.7
2020-Jul-13 11:14 21.7
2020-Jul-13 11:09 21.7
2020-Jul-13 11:04 21.7
2020-Jul-13 10:59 21.1
2020-Jul-13 10:54 21.1
2020-Jul-13 10:49 21.1
2020-Jul-13 10:44 21.1
2020-Jul-13 10:39 21.1
2020-Jul-13 10:34 21.1
2020-Jul-13 10:29 21.1
2020-Jul-13 10:24 21.1
2020-Jul-13 10:19 21.1
2020-Jul-13 10:14 21.1
2020-Jul-13 10:09 293 0 gusting 0 21.1
2020-Jul-13 10:04 21.1
2020-Jul-13 09:59 21.1
2020-Jul-13 09:54 21.1
2020-Jul-13 09:49 21.1
2020-Jul-13 09:44 21.1
2020-Jul-13 09:39 21.1
2020-Jul-13 09:34 293 0 gusting 0 21.1
2020-Jul-13 09:29 293 0 gusting 1 21.1
2020-Jul-13 09:24 293 0 gusting 1 21.1
2020-Jul-13 09:19 293 1 gusting 1 21.1
2020-Jul-13 09:14 293 0 gusting 1 21.1
2020-Jul-13 09:09 293 1 gusting 2 21.1
2020-Jul-13 09:04 293 0 gusting 1 21.1
2020-Jul-13 08:59 293 1 gusting 2 21.1
2020-Jul-13 08:54 21.1
2020-Jul-13 08:49 293 0 gusting 1 21.7
2020-Jul-13 08:44 293 1 gusting 3 21.1
2020-Jul-13 08:39 293 1 gusting 2 21.1
2020-Jul-13 08:34 293 2 gusting 3 21.1
2020-Jul-13 08:29 293 1 gusting 3 21.1
2020-Jul-13 08:24 293 1 gusting 2 21.1
2020-Jul-13 08:19 293 1 gusting 2 21.1
2020-Jul-13 08:14 315 0 gusting 1 21.1
2020-Jul-13 08:09 315 1 gusting 1 21.1
2020-Jul-13 08:04 21.1
2020-Jul-13 07:59 293 0 gusting 1 21.1
2020-Jul-13 07:54 270 1 gusting 2 21.1
2020-Jul-13 07:49 293 2 gusting 3 21.1
2020-Jul-13 07:44 293 2 gusting 3 21.1
2020-Jul-13 07:39 293 1 gusting 1 21.1
2020-Jul-13 07:34 21.1
2020-Jul-13 07:29 293 0 gusting 0 21.1
2020-Jul-13 07:24 293 0 gusting 2 21.1
2020-Jul-13 07:19 21.1
2020-Jul-13 07:14 21.1
2020-Jul-13 07:09 21.1
2020-Jul-13 07:04 21.1
2020-Jul-13 06:59 293 0 gusting 1 21.1
2020-Jul-13 06:54 21.1
2020-Jul-13 06:49 21.1
2020-Jul-13 06:44 21.1
2020-Jul-13 06:39 21.1
2020-Jul-13 06:34 21.1
2020-Jul-13 06:29 21.1
2020-Jul-13 06:24 21.7
2020-Jul-13 06:19 21.7
2020-Jul-13 06:14 21.7
2020-Jul-13 06:09 21.7
2020-Jul-13 06:04 21.7
2020-Jul-13 05:59 21.7
2020-Jul-13 05:54 21.7
2020-Jul-13 05:49 315 1 gusting 2 21.7
2020-Jul-13 05:44 315 1 gusting 2 21.7
2020-Jul-13 05:39 293 1 gusting 2 21.7
2020-Jul-13 05:34 293 0 gusting 1 21.7
2020-Jul-13 05:29 293 0 gusting 1 21.7
2020-Jul-13 05:24 293 0 gusting 1 21.7
2020-Jul-13 05:19 315 0 gusting 1 21.7
2020-Jul-13 05:14 315 0 gusting 0 21.7
2020-Jul-13 05:09 315 0 gusting 1 22.2
2020-Jul-13 05:04 315 0 gusting 0 22.2
2020-Jul-13 04:59 22.2
2020-Jul-13 04:54 22.2
2020-Jul-13 04:49 22.2
2020-Jul-13 04:44 315 0 gusting 1 22.2
2020-Jul-13 04:39 270 1 gusting 2 22.2
2020-Jul-13 04:34 315 1 gusting 3 22.2
2020-Jul-13 04:29 315 0 gusting 2 22.2
2020-Jul-13 04:24 22.8
2020-Jul-13 04:19 315 0 gusting 1 22.8
2020-Jul-13 04:14 23.3
2020-Jul-13 04:09 270 0 gusting 1 23.3
2020-Jul-13 04:04 090 0 gusting 0 23.9
2020-Jul-13 03:59 270 0 gusting 1 23.9
2020-Jul-13 03:54 203 1 gusting 2 24.4
2020-Jul-13 03:49 203 0 gusting 1 24.4
2020-Jul-13 03:44 203 0 gusting 2 23.9
2020-Jul-13 03:39 203 0 gusting 1 23.9
2020-Jul-13 03:34 23.9
2020-Jul-13 03:29 23.9
2020-Jul-13 03:24 23.9
2020-Jul-13 03:19 23.9
2020-Jul-13 03:14 23.9
2020-Jul-13 03:09 23.9
2020-Jul-13 03:04 23.9
2020-Jul-13 02:59 23.9
2020-Jul-13 02:54 23.9
2020-Jul-13 02:49 23.9
2020-Jul-13 02:44 23.9
2020-Jul-13 02:39 23.9
2020-Jul-13 02:34 24.4
2020-Jul-13 02:29 24.4
2020-Jul-13 02:24 24.4
2020-Jul-13 02:19 24.4
2020-Jul-13 02:14 24.4
2020-Jul-13 02:09 24.4
2020-Jul-13 02:04 24.4
2020-Jul-13 01:59 24.4
2020-Jul-13 01:54 203 0 gusting 1 24.4
2020-Jul-13 01:49 24.4
2020-Jul-13 01:44 24.4
2020-Jul-13 01:39 24.4
2020-Jul-13 01:34 24.4
2020-Jul-13 01:29 25.0
2020-Jul-13 01:24 25.0
2020-Jul-13 01:19 25.0
2020-Jul-13 01:14 25.0
2020-Jul-13 01:09 203 0 gusting 1 25.0
2020-Jul-13 01:04 203 0 gusting 0 25.6
2020-Jul-13 00:59 203 0 gusting 0 25.6
2020-Jul-13 00:54 25.6
2020-Jul-13 00:48 25.6
2020-Jul-13 00:44 26.1
2020-Jul-13 00:39 26.1
2020-Jul-13 00:34 26.1
2020-Jul-13 00:29 26.1
2020-Jul-13 00:24 26.1
2020-Jul-13 00:19 26.1
2020-Jul-13 00:14 26.1
2020-Jul-13 00:09 26.7
2020-Jul-13 00:04 26.7
2020-Jul-12 23:59 203 0 gusting 0 26.7
2020-Jul-12 23:54 203 0 gusting 1 27.2
2020-Jul-12 23:49 27.2
2020-Jul-12 23:44 27.8
2020-Jul-12 23:39 27.8
2020-Jul-12 23:34 203 0 gusting 0 28.3
2020-Jul-12 23:29 28.3
2020-Jul-12 23:24 203 0 gusting 0 28.9
2020-Jul-12 23:19 203 0 gusting 1 29.4
2020-Jul-12 23:14 203 0 gusting 0 29.4
2020-Jul-12 23:09 29.4
2020-Jul-12 23:04 29.4
2020-Jul-12 22:59 29.4
2020-Jul-12 22:54 29.4
2020-Jul-12 22:49 29.4
2020-Jul-12 22:44 30.0
2020-Jul-12 22:39 135 0 gusting 0 30.0
2020-Jul-12 22:34 30.0
2020-Jul-12 22:29 30.0
2020-Jul-12 22:24 113 0 gusting 1 30.0
2020-Jul-12 22:19 29.4
2020-Jul-12 22:14 068 0 gusting 1 29.4
2020-Jul-12 22:09 338 0 gusting 1 29.4
2020-Jul-12 22:04 29.4
2020-Jul-12 21:59 29.4
2020-Jul-12 21:54 180 0 gusting 1 29.4
2020-Jul-12 21:49 29.4
2020-Jul-12 21:44 248 0 gusting 1 29.4
2020-Jul-12 21:39 248 0 gusting 0 30.0
2020-Jul-12 21:34 30.0
2020-Jul-12 21:29 068 0 gusting 1 30.6
2020-Jul-12 21:24 270 0 gusting 1 30.6
2020-Jul-12 21:19 090 0 gusting 1 30.6
2020-Jul-12 21:14 293 1 gusting 3 30.6
2020-Jul-12 21:09 30.6
2020-Jul-12 21:04 30.6
2020-Jul-12 20:59 090 1 gusting 2 30.0
2020-Jul-12 20:54 338 2 gusting 6 30.0
2020-Jul-12 20:49 180 0 gusting 2 30.0
2020-Jul-12 20:44 248 1 gusting 3 30.0
2020-Jul-12 20:39 338 0 gusting 1 30.0
2020-Jul-12 20:34 203 0 gusting 2 30.0
2020-Jul-12 20:29 315 4 gusting 7 30.0
2020-Jul-12 20:24 270 2 gusting 5 30.0
2020-Jul-12 20:19 270 1 gusting 2 30.6
2020-Jul-12 20:14 293 0 gusting 1 30.0
2020-Jul-12 20:09 293 1 gusting 2 30.0
2020-Jul-12 20:04 158 0 gusting 1 30.6
2020-Jul-12 19:59 023 1 gusting 3 30.0
2020-Jul-12 19:54 315 1 gusting 3 30.0
2020-Jul-12 19:49 293 4 gusting 8 30.0
2020-Jul-12 19:44 270 0 gusting 2 30.0
2020-Jul-12 19:39 293 2 gusting 6 30.0
2020-Jul-12 19:34 293 1 gusting 3 30.0
2020-Jul-12 19:29 29.4
2020-Jul-12 19:24 315 2 gusting 4 30.0
2020-Jul-12 19:19 270 6 gusting 13 29.4
2020-Jul-12 19:14 270 2 gusting 3 29.4
2020-Jul-12 19:09 270 1 gusting 3 29.4
2020-Jul-12 19:04 293 1 gusting 4 29.4
2020-Jul-12 18:59 248 1 gusting 3 29.4
2020-Jul-12 18:54 293 6 gusting 12 28.9
2020-Jul-12 18:49 270 3 gusting 6 28.9
2020-Jul-12 18:44 293 7 gusting 10 28.9
2020-Jul-12 18:39 248 3 gusting 6 28.9
2020-Jul-12 18:34 293 6 gusting 9 28.9
2020-Jul-12 18:29 286 5 28.9
2020-Jul-12 18:24 270 1 gusting 2 28.3
2020-Jul-12 18:19 293 5 gusting 9 28.9
2020-Jul-12 18:14 315 3 gusting 7 28.9
2020-Jul-12 18:09 338 1 gusting 2 28.3
2020-Jul-12 18:04 248 1 gusting 5 28.3
2020-Jul-12 17:59 270 5 gusting 9 28.3
2020-Jul-12 17:54 338 2 gusting 5 28.3
2020-Jul-12 17:49 270 3 gusting 6 27.8
2020-Jul-12 17:44 293 2 gusting 3 27.8
2020-Jul-12 17:39 315 5 gusting 9 27.8
2020-Jul-12 17:34 293 2 gusting 4 27.8
2020-Jul-12 17:29 293 3 gusting 6 27.8
2020-Jul-12 17:24 293 4 gusting 8 27.8
2020-Jul-12 17:19 270 5 gusting 6 27.8
2020-Jul-12 17:14 270 7 gusting 10 27.8
2020-Jul-12 17:09 315 3 gusting 8 27.8
2020-Jul-12 17:04 293 2 gusting 5 27.8
2020-Jul-12 16:59 293 6 gusting 13 27.8
2020-Jul-12 16:54 315 0 gusting 1 27.8
2020-Jul-12 16:49 293 1 gusting 2 27.8
2020-Jul-12 16:44 315 2 gusting 5 27.8
2020-Jul-12 16:39 293 3 gusting 6 27.8
2020-Jul-12 16:34 293 2 gusting 5 27.8
2020-Jul-12 16:29 270 4 gusting 6 27.8
2020-Jul-12 16:24 248 4 gusting 6 27.8
2020-Jul-12 16:19 270 1 gusting 2 27.8
2020-Jul-12 16:14 270 2 gusting 5 27.8
2020-Jul-12 16:09 270 2 gusting 6 27.2
2020-Jul-12 16:04 293 6 gusting 8 27.2
2020-Jul-12 15:59 293 2 gusting 6 27.8
2020-Jul-12 15:54 315 0 gusting 1 27.2
2020-Jul-12 15:49 225 3 gusting 7 27.2
2020-Jul-12 15:44 270 5 gusting 8 27.2
2020-Jul-12 15:39 293 0 gusting 2 27.2
2020-Jul-12 15:34 270 4 gusting 6 26.7
2020-Jul-12 15:29 270 5 gusting 7 26.7
2020-Jul-12 15:24 293 4 gusting 6 26.7
2020-Jul-12 15:19 293 1 gusting 3 26.1
2020-Jul-12 15:14 293 2 gusting 6 26.1
2020-Jul-12 15:09 270 2 gusting 3 26.1
2020-Jul-12 15:04 293 6 gusting 8 26.1
2020-Jul-12 14:59 293 6 gusting 9 26.1
2020-Jul-12 14:54 293 3 gusting 6 26.1
2020-Jul-12 14:49 270 3 gusting 6 26.1
2020-Jul-12 14:44 270 3 gusting 6 26.1
2020-Jul-12 14:39 315 6 gusting 9 26.1
2020-Jul-12 14:34 293 4 gusting 9 26.1
2020-Jul-12 14:29 270 2 gusting 6 26.1
2020-Jul-12 14:24 293 4 gusting 6 26.1
2020-Jul-12 14:19 225 1 gusting 5 26.1
2020-Jul-12 14:14 225 2 gusting 5 25.6
2020-Jul-12 14:09 270 1 gusting 3 25.6
2020-Jul-12 14:04 293 6 gusting 11 25.6
2020-Jul-12 13:59 293 5 gusting 7 25.6
2020-Jul-12 13:54 270 3 gusting 6 25.6
2020-Jul-12 13:49 248 2 gusting 6 25.6
2020-Jul-12 13:44 270 3 gusting 6 25.0
2020-Jul-12 13:39 270 1 gusting 3 25.0
2020-Jul-12 13:34 270 2 gusting 6 25.0
2020-Jul-12 13:29 270 4 gusting 9 25.0
2020-Jul-12 13:24 293 4 gusting 6 24.4
2020-Jul-12 13:19 293 7 gusting 13 24.4
2020-Jul-12 13:14 293 4 gusting 8 25.0
2020-Jul-12 13:09 293 2 gusting 4 24.4
2020-Jul-12 13:04 270 2 gusting 4 24.4
2020-Jul-12 12:59 270 2 gusting 7 24.4
2020-Jul-12 12:54 293 0 gusting 1 24.4
2020-Jul-12 12:49 248 0 gusting 1 24.4
2020-Jul-12 12:44 270 1 gusting 3 23.9
2020-Jul-12 12:39 315 0 gusting 1 23.9
2020-Jul-12 12:34 023 0 gusting 1 23.9
2020-Jul-12 12:29 293 1 gusting 4 23.3
2020-Jul-12 12:24 23.3
2020-Jul-12 12:19 180 0 gusting 0 23.3
2020-Jul-12 12:14 270 1 gusting 3 23.3
2020-Jul-12 12:09 315 0 gusting 2 22.8
2020-Jul-12 12:04 225 1 gusting 5 22.8
2020-Jul-12 11:59 225 0 gusting 3 22.8
2020-Jul-12 11:54 315 0 gusting 2 22.8
2020-Jul-12 11:49 225 0 gusting 7 22.8
2020-Jul-12 11:44 225 0 gusting 1 22.2
2020-Jul-12 11:39 293 2 gusting 4 22.2
2020-Jul-12 11:34 248 0 gusting 1 22.2
2020-Jul-12 11:29 21.7
2020-Jul-12 11:24 248 0 gusting 1 21.7
2020-Jul-12 11:19 21.7
2020-Jul-12 11:14 315 0 gusting 1 21.1
2020-Jul-12 11:09 270 0 gusting 1 21.1
2020-Jul-12 11:04 248 1 gusting 6 21.1
2020-Jul-12 10:59 270 0 gusting 2 21.1
2020-Jul-12 10:54 248 0 gusting 1 20.6
2020-Jul-12 10:49 338 0 gusting 3 20.6
2020-Jul-12 10:44 293 1 gusting 3 20.6
2020-Jul-12 10:39 225 1 gusting 4 20.6
2020-Jul-12 10:34 20.6
2020-Jul-12 10:29 270 0 gusting 0 20.0
2020-Jul-12 10:24 248 1 gusting 4 20.0
2020-Jul-12 10:19 20.0
2020-Jul-12 10:14 248 0 gusting 3 20.0
2020-Jul-12 10:09 203 0 gusting 0 20.0
2020-Jul-12 10:04 203 1 gusting 6 20.0
2020-Jul-12 09:59 20.0
2020-Jul-12 09:54 20.0
2020-Jul-12 09:49 20.0
2020-Jul-12 09:44 225 0 gusting 1 20.0
2020-Jul-12 09:39 180 0 gusting 1 20.0
2020-Jul-12 09:34 023 0 gusting 0 20.0
2020-Jul-12 09:29 20.0
2020-Jul-12 09:24 023 0 gusting 1 20.0
2020-Jul-12 09:19 023 0 gusting 0 20.0
2020-Jul-12 09:14 023 0 gusting 0 20.0
2020-Jul-12 09:09 20.0
2020-Jul-12 09:04 20.0
2020-Jul-12 08:59 20.0
2020-Jul-12 08:54 293 0 gusting 1 20.0
2020-Jul-12 08:49 20.0
2020-Jul-12 08:44 023 0 gusting 0 20.6
2020-Jul-12 08:39 20.6
2020-Jul-12 08:34 023 0 gusting 0 20.6
2020-Jul-12 08:29 023 0 gusting 2 20.6
2020-Jul-12 08:24 20.6
2020-Jul-12 08:19 090 0 gusting 1 20.6
2020-Jul-12 08:14 203 0 gusting 1 20.6
2020-Jul-12 08:09 20.6
2020-Jul-12 08:04 113 0 gusting 0 20.6
2020-Jul-12 07:59 20.6
2020-Jul-12 07:54 21.1
2020-Jul-12 07:49 21.1
2020-Jul-12 07:44 21.1
2020-Jul-12 07:39 21.1
2020-Jul-12 07:34 21.1
2020-Jul-12 07:29 21.1
2020-Jul-12 07:24 21.1
2020-Jul-12 07:19 21.1
2020-Jul-12 07:14 21.1
2020-Jul-12 07:09 21.1
2020-Jul-12 07:04 21.1